Mckinley Sea — WDE5024 — position and weather

sailwx.info

Track history (hours):
 
Tides and Currents Weather Stations Pressure Air Temp Water Temp Dewpoint Dewpoint Depression Visibility Wind Speed Wind Dir Waves Ship Positions

Mckinley Sea

Owner: Kirby Offshore Marine, LLC, Staten Island, NY. More information available from US FCC via Universal Licensing System and Coast Guard Vessel Documentation Center.

Last reported at 2015-Apr-21 22:31 UTC. Time now 2015-Apr-21 23:22 UTC.
Position N 40°30' W 074°09'.

Length 46 m; draft 7 m.

Type: Towing. MMSI: 367360980.

Date/timePositionNaut miles runAvg speedWind from/ knotsBaromVisibWave heightAir tempDewpointWater temp
2015-Apr-21 22:31N 40°30' W 074°09'0 0.0
2015-Apr-21 21:27N 40°30' W 074°09'0 0.0
2015-Apr-21 20:27N 40°30' W 074°09'0 0.1
2015-Apr-21 19:30N 40°30' W 074°09'0 0.0
2015-Apr-21 18:19N 40°30' W 074°09'0 0.0
2015-Apr-21 17:21N 40°30' W 074°09'0 0.0
2015-Apr-21 16:25N 40°30' W 074°09'0 0.0
2015-Apr-21 15:13N 40°30' W 074°09'0 0.1
2015-Apr-21 14:16N 40°30' W 074°09'5 2.9
2015-Apr-21 12:29N 40°31' W 074°03'8 8.6
2015-Apr-21 11:33N 40°39' W 074°03'1 1.1
2015-Apr-21 10:33N 40°40' W 074°02'0 0.0
2015-Apr-21 09:33N 40°40' W 074°02'0 0.0
2015-Apr-21 08:33N 40°40' W 074°02'0 0.0
2015-Apr-21 07:33N 40°40' W 074°02'0 0.0
2015-Apr-21 06:34N 40°40' W 074°02'0 0.0
2015-Apr-21 05:33N 40°40' W 074°02'0 0.1
2015-Apr-21 04:33N 40°40' W 074°02'0 0.2
2015-Apr-21 03:33N 40°40' W 074°02'0 0.0
2015-Apr-21 02:33N 40°40' W 074°02'0 0.0
2015-Apr-21 01:33N 40°40' W 074°02'0 0.1
2015-Apr-21 00:33N 40°40' W 074°02'0 0.1
2015-Apr-20 23:33N 40°40' W 074°02'0 0.0
2015-Apr-20 22:33N 40°40' W 074°02'0 0.0
2015-Apr-20 21:33N 40°40' W 074°02'1 1.1
2015-Apr-20 20:33N 40°39' W 074°03'5 4.9
2015-Apr-20 19:32N 40°38' W 074°10'0 0.0
2015-Apr-20 18:28N 40°38' W 074°10'0 0.0
2015-Apr-20 17:05N 40°38' W 074°10'0 0.0
2015-Apr-20 16:31N 40°38' W 074°10'0 0.0
2015-Apr-20 15:33N 40°38' W 074°10'0 0.3
2015-Apr-20 14:33N 40°39' W 074°10'0 0.1
2015-Apr-20 13:33N 40°39' W 074°10'0 0.0
2015-Apr-20 12:33N 40°39' W 074°10'0 0.0
2015-Apr-20 11:33N 40°39' W 074°10'0 0.3
2015-Apr-20 10:30N 40°38' W 074°10'0 0.0
2015-Apr-20 09:32N 40°38' W 074°10'0 0.0
2015-Apr-20 08:29N 40°38' W 074°10'0 0.0
2015-Apr-20 07:04N 40°38' W 074°10'0 0.1
2015-Apr-20 05:33N 40°38' W 074°09'5 5.4
2015-Apr-20 04:33N 40°37' W 074°03'8 7.5
2015-Apr-20 03:33N 40°30' W 073°57'10 8.8
2015-Apr-20 02:25N 40°29' W 073°44'8 8.6
2015-Apr-20 01:30N 40°32' W 073°35'10 9.7
2015-Apr-20 00:29N 40°34' W 073°22'910.0
2015-Apr-19 23:33N 40°36' W 073°11'1110.2
2015-Apr-19 22:31N 40°39' W 072°57'1010.1
2015-Apr-19 21:31N 40°43' W 072°45'1010.0
2015-Apr-19 20:33N 40°46' W 072°33'1010.0
2015-Apr-19 19:33N 40°50' W 072°21'1010.0
2015-Apr-19 18:33N 40°54' W 072°09'10 9.9
2015-Apr-19 17:33N 40°58' W 071°57'10 9.9
2015-Apr-19 16:33N 41°02' W 071°44'10 9.8
2015-Apr-19 15:33N 41°05' W 071°32'9 9.2
2015-Apr-19 14:33N 41°10' W 071°22'10 9.5
2015-Apr-19 13:33N 41°17' W 071°14'10 9.5
2015-Apr-19 12:32N 41°24' W 071°05'82 8.2
2015-Apr-19 02:33N 42°42' W 070°32'9 9.5
2015-Apr-19 01:33N 42°51' W 070°36'3 0.1
2015-Apr-18 02:27N 42°54' W 070°38'22 3.7
2015-Apr-17 20:26N 42°32' W 070°40'18 1.0
2015-Apr-17 03:23N 42°21' W 070°58'9 0.4
2015-Apr-16 04:26N 42°25' W 070°47'8 9.1
2015-Apr-16 03:31N 42°30' W 070°38'11 9.6
2015-Apr-16 02:22N 42°39' W 070°30'  
2015-Apr-13 17:15N 43°02' W 070°42'92 6.1
2015-Apr-13 02:13N 41°30' W 070°50'5 7.1
2015-Apr-13 01:33N 41°29' W 070°56'7 7.0
2015-Apr-13 00:33N 41°24' W 071°03'7 7.5
2015-Apr-12 23:33N 41°18' W 071°09'8 7.6
2015-Apr-12 22:33N 41°12' W 071°16'8 7.6
2015-Apr-12 21:33N 41°08' W 071°24'8 7.7
2015-Apr-12 20:33N 41°06' W 071°34'8 7.8
2015-Apr-12 19:33N 41°03' W 071°43'8 7.7
2015-Apr-12 18:33N 40°60' W 071°53'8 7.9
2015-Apr-12 17:33N 40°56' W 072°02'8 7.9
2015-Apr-12 16:33N 40°53' W 072°12'8 7.8
2015-Apr-12 15:33N 40°50' W 072°21'8 7.6
2015-Apr-12 14:33N 40°47' W 072°30'8 7.5
2015-Apr-12 13:33N 40°44' W 072°40'8 7.6
2015-Apr-12 12:33N 40°41' W 072°49'8 7.6
2015-Apr-12 11:33N 40°39' W 072°58'10 7.8
2015-Apr-12 10:19N 40°35' W 073°10'8 7.9
2015-Apr-12 09:21N 40°34' W 073°20'22 7.8
2015-Apr-12 06:28N 40°30' W 073°49'9 6.6
2015-Apr-12 05:11N 40°31' W 074°00'4 6.1
2015-Apr-12 04:33N 40°35' W 074°02'5 5.3
2015-Apr-12 03:33N 40°39' W 074°07'4 4.3
2015-Apr-12 02:33N 40°38' W 074°12'0 0.0
2015-Apr-12 01:33N 40°38' W 074°12'0 0.0
2015-Apr-12 00:33N 40°38' W 074°12'0 0.0
2015-Apr-11 23:33N 40°38' W 074°12'0 0.0
2015-Apr-11 22:33N 40°38' W 074°12'  
Track history (hours):
 
Tides and Currents Weather Stations Pressure Air Temp Water Temp Dewpoint Dewpoint Depression Visibility Wind Speed Wind Dir Waves Ship Positions

Mckinley Sea

Owner: Kirby Offshore Marine, LLC, Staten Island, NY. More information available from US FCC via Universal Licensing System and Coast Guard Vessel Documentation Center.

Last reported at 2015-Apr-21 22:31 UTC. Time now 2015-Apr-21 23:22 UTC.
Position N 40°30' W 074°09'.

Length 46 m; draft 7 m.

Type: Towing. MMSI: 367360980.

Date/timePositionNaut miles runAvg speedWind from/ knotsBaromVisibWave heightAir tempDewpointWater temp
2015-Apr-21 22:31N 40°30' W 074°09'0 0.0
2015-Apr-21 21:27N 40°30' W 074°09'0 0.0
2015-Apr-21 20:27N 40°30' W 074°09'0 0.1
2015-Apr-21 19:30N 40°30' W 074°09'0 0.0
2015-Apr-21 18:19N 40°30' W 074°09'0 0.0
2015-Apr-21 17:21N 40°30' W 074°09'0 0.0
2015-Apr-21 16:25N 40°30' W 074°09'0 0.0
2015-Apr-21 15:13N 40°30' W 074°09'0 0.1
2015-Apr-21 14:16N 40°30' W 074°09'5 2.9
2015-Apr-21 12:29N 40°31' W 074°03'8 8.6
2015-Apr-21 11:33N 40°39' W 074°03'1 1.1
2015-Apr-21 10:33N 40°40' W 074°02'0 0.0
2015-Apr-21 09:33N 40°40' W 074°02'0 0.0
2015-Apr-21 08:33N 40°40' W 074°02'0 0.0
2015-Apr-21 07:33N 40°40' W 074°02'0 0.0
2015-Apr-21 06:34N 40°40' W 074°02'0 0.0
2015-Apr-21 05:33N 40°40' W 074°02'0 0.1
2015-Apr-21 04:33N 40°40' W 074°02'0 0.2
2015-Apr-21 03:33N 40°40' W 074°02'0 0.0
2015-Apr-21 02:33N 40°40' W 074°02'0 0.0
2015-Apr-21 01:33N 40°40' W 074°02'0 0.1
2015-Apr-21 00:33N 40°40' W 074°02'0 0.1
2015-Apr-20 23:33N 40°40' W 074°02'0 0.0
2015-Apr-20 22:33N 40°40' W 074°02'0 0.0
2015-Apr-20 21:33N 40°40' W 074°02'1 1.1
2015-Apr-20 20:33N 40°39' W 074°03'5 4.9
2015-Apr-20 19:32N 40°38' W 074°10'0 0.0
2015-Apr-20 18:28N 40°38' W 074°10'0 0.0
2015-Apr-20 17:05N 40°38' W 074°10'0 0.0
2015-Apr-20 16:31N 40°38' W 074°10'0 0.0
2015-Apr-20 15:33N 40°38' W 074°10'0 0.3
2015-Apr-20 14:33N 40°39' W 074°10'0 0.1
2015-Apr-20 13:33N 40°39' W 074°10'0 0.0
2015-Apr-20 12:33N 40°39' W 074°10'0 0.0
2015-Apr-20 11:33N 40°39' W 074°10'0 0.3
2015-Apr-20 10:30N 40°38' W 074°10'0 0.0
2015-Apr-20 09:32N 40°38' W 074°10'0 0.0
2015-Apr-20 08:29N 40°38' W 074°10'0 0.0
2015-Apr-20 07:04N 40°38' W 074°10'0 0.1
2015-Apr-20 05:33N 40°38' W 074°09'5 5.4
2015-Apr-20 04:33N 40°37' W 074°03'8 7.5
2015-Apr-20 03:33N 40°30' W 073°57'10 8.8
2015-Apr-20 02:25N 40°29' W 073°44'8 8.6
2015-Apr-20 01:30N 40°32' W 073°35'10 9.7
2015-Apr-20 00:29N 40°34' W 073°22'910.0
2015-Apr-19 23:33N 40°36' W 073°11'1110.2
2015-Apr-19 22:31N 40°39' W 072°57'1010.1
2015-Apr-19 21:31N 40°43' W 072°45'1010.0
2015-Apr-19 20:33N 40°46' W 072°33'1010.0
2015-Apr-19 19:33N 40°50' W 072°21'1010.0
2015-Apr-19 18:33N 40°54' W 072°09'10 9.9
2015-Apr-19 17:33N 40°58' W 071°57'10 9.9
2015-Apr-19 16:33N 41°02' W 071°44'10 9.8
2015-Apr-19 15:33N 41°05' W 071°32'9 9.2
2015-Apr-19 14:33N 41°10' W 071°22'10 9.5
2015-Apr-19 13:33N 41°17' W 071°14'10 9.5
2015-Apr-19 12:32N 41°24' W 071°05'82 8.2
2015-Apr-19 02:33N 42°42' W 070°32'9 9.5
2015-Apr-19 01:33N 42°51' W 070°36'3 0.1
2015-Apr-18 02:27N 42°54' W 070°38'22 3.7
2015-Apr-17 20:26N 42°32' W 070°40'18 1.0
2015-Apr-17 03:23N 42°21' W 070°58'9 0.4
2015-Apr-16 04:26N 42°25' W 070°47'8 9.1
2015-Apr-16 03:31N 42°30' W 070°38'11 9.6
2015-Apr-16 02:22N 42°39' W 070°30'  
2015-Apr-13 17:15N 43°02' W 070°42'92 6.1
2015-Apr-13 02:13N 41°30' W 070°50'5 7.1
2015-Apr-13 01:33N 41°29' W 070°56'7 7.0
2015-Apr-13 00:33N 41°24' W 071°03'7 7.5
2015-Apr-12 23:33N 41°18' W 071°09'8 7.6
2015-Apr-12 22:33N 41°12' W 071°16'8 7.6
2015-Apr-12 21:33N 41°08' W 071°24'8 7.7
2015-Apr-12 20:33N 41°06' W 071°34'8 7.8
2015-Apr-12 19:33N 41°03' W 071°43'8 7.7
2015-Apr-12 18:33N 40°60' W 071°53'8 7.9
2015-Apr-12 17:33N 40°56' W 072°02'8 7.9
2015-Apr-12 16:33N 40°53' W 072°12'8 7.8
2015-Apr-12 15:33N 40°50' W 072°21'8 7.6
2015-Apr-12 14:33N 40°47' W 072°30'8 7.5
2015-Apr-12 13:33N 40°44' W 072°40'8 7.6
2015-Apr-12 12:33N 40°41' W 072°49'8 7.6
2015-Apr-12 11:33N 40°39' W 072°58'10 7.8
2015-Apr-12 10:19N 40°35' W 073°10'8 7.9
2015-Apr-12 09:21N 40°34' W 073°20'22 7.8
2015-Apr-12 06:28N 40°30' W 073°49'9 6.6
2015-Apr-12 05:11N 40°31' W 074°00'4 6.1
2015-Apr-12 04:33N 40°35' W 074°02'5 5.3
2015-Apr-12 03:33N 40°39' W 074°07'4 4.3
2015-Apr-12 02:33N 40°38' W 074°12'0 0.0
2015-Apr-12 01:33N 40°38' W 074°12'0 0.0
2015-Apr-12 00:33N 40°38' W 074°12'0 0.0
2015-Apr-11 23:33N 40°38' W 074°12'0 0.0
2015-Apr-11 22:33N 40°38' W 074°12'  

Dump ship's entire track history